Evans, CO

2:39 PM MDT on May 30, 2015 (GMT -0600)
Fort Collins-Loveland Municipal | | Change Station
CLOSE
Current Station
Airport
Location: Fort Collins,
Elevation: 5016 ft
Nearby Weather Stations

Elev 5016 ft 40.45 °N, 105.01 °W | Updated 4 minutes ago

Clear
Clear
70 °F
Feels Like 70 °F
N
9
Wind Variable Wind from SE

Today
High -- | Low -- °F
--% Chance of Precip.
Yesterday
High -- | Low -- °F
Precip. -- in
5:31 AM 8:21 PM
Waxing Gibbous, 92% visible
Pressure 30.22 in
Visibility 10.0 miles
Clouds Clear
Dew Point 50 °F
Humidity 49%
Rainfall 0.00 in
Snow Depth Not available.
UV 11 out of 12
Pollen 7.00 out of 12
Air Quality Not available.
Flu Activity Sporadic
METAR KFNL 302035Z AUTO 13008KT 10SM CLR 21/10 A3022 RMK AO1

More Conditions Fewer Conditions

Pressure 30.22 in
Visibility 10.0 miles
Clouds Clear
Dew Point 50 °F
Humidity 49%
Rainfall 0.00 in
Snow Depth Not available.
UV 11 out of 12
Pollen 7.00 out of 12
Air Quality Not available.
Flu Activity Sporadic
METAR KFNL 302035Z AUTO 13008KT 10SM CLR 21/10 A3022 RMK AO1

More Conditions Fewer Conditions

10-Day Weather Forecast

Almanac

Astronomy

May. 30, 2015 Rise Set
Actual Time
Civil Twilight
Nautical Twilight
Astronomical Twilight
Moon
Length of Visible Light
Length of Day
Tomorrow will be .
, % of the Moon is Illuminated

Today's Extremes

State Highs State Lows

Community

WunderPhotos

Upload Photos

1,825,578 photos uploaded!

WunderBlogs® & News

Nearby

Air Quality

  Air Quality AQ Index Pollutant
Not available.

Snow Depth

Station Depth Elevation

Earthquake Activity

City Distance Mag. Time & Date
Minimum magnitude displayed is 2.5.

Coastal Water Temperatures

Place Temperature

Stations

Nearby Weather Stations

Station Location Temp. Windchill Dew Point Humidity Wind Precip. Elev Updated Type